Amendola, Amendola Airport (LIBA)

NameAmendola Airport
CityAmendola
CountryItaly
ICAOLIBA
IATA
Altitude56 m
CoordinatesGoogle Map
Live Air TrafficLiveATC.net
METARLIBA 141655Z 29016KT 7000 -RA FEW015 SCT030 BKN060 07/06 Q1010 RMK OVC VIS MIN 7000 WIND THR11 29016KT WIND THR29 /////KT WHT
2018-12-14 16:55:00 Wind: West (290°) 8.23 m/s - Visibility: 7000 m - Weather: Light Rain - Temperature: 7 °C - Dew point: 6 °C - Humidity: 93.4% - Pressure: 1010 hPa

Sorry, no flights used the airport in this database.